sensor_id;sensor_type;location;lat;lon;timestamp;pressure;altitude;pressure_sealevel;temperature;humidity
56671;BME280;42545;50.054;8.306;2023-05-24T00:01:45;100483.31;;;9.89;79.80
56671;BME280;42545;50.054;8.306;2023-05-24T00:04:12;100484.16;;;9.87;79.65
56671;BME280;42545;50.054;8.306;2023-05-24T00:06:39;100477.81;;;9.80;79.51
56671;BME280;42545;50.054;8.306;2023-05-24T00:09:06;100477.72;;;9.75;80.41
56671;BME280;42545;50.054;8.306;2023-05-24T00:11:33;100479.56;;;9.79;81.22
56671;BME280;42545;50.054;8.306;2023-05-24T00:14:01;100479.53;;;9.78;81.46
56671;BME280;42545;50.054;8.306;2023-05-24T00:16:27;100475.84;;;9.71;80.71
56671;BME280;42545;50.054;8.306;2023-05-24T00:18:54;100479.28;;;9.69;81.54
56671;BME280;42545;50.054;8.306;2023-05-24T00:21:22;100476.59;;;9.67;82.08
56671;BME280;42545;50.054;8.306;2023-05-24T00:23:49;100472.13;;;9.63;82.34
56671;BME280;42545;50.054;8.306;2023-05-24T00:26:16;100473.72;;;9.58;82.40
56671;BME280;42545;50.054;8.306;2023-05-24T00:28:42;100466.56;;;9.52;83.11
56671;BME280;42545;50.054;8.306;2023-05-24T00:31:11;100473.56;;;9.52;83.35
56671;BME280;42545;50.054;8.306;2023-05-24T00:33:37;100476.97;;;9.48;83.79
56671;BME280;42545;50.054;8.306;2023-05-24T00:36:04;100471.56;;;9.43;84.08
56671;BME280;42545;50.054;8.306;2023-05-24T00:38:31;100467.91;;;9.38;83.83
56671;BME280;42545;50.054;8.306;2023-05-24T00:40:57;100468.69;;;9.34;84.16
56671;BME280;42545;50.054;8.306;2023-05-24T00:43:25;100475.59;;;9.30;84.13
56671;BME280;42545;50.054;8.306;2023-05-24T00:46:14;100474.72;;;9.30;84.35
56671;BME280;42545;50.054;8.306;2023-05-24T00:48:43;100484.28;;;9.26;83.69
56671;BME280;42545;50.054;8.306;2023-05-24T00:51:11;100477.16;;;9.23;83.46
56671;BME280;42545;50.054;8.306;2023-05-24T00:53:39;100480.59;;;9.21;83.22
56671;BME280;42545;50.054;8.306;2023-05-24T00:56:07;100485.00;;;9.20;83.29
56671;BME280;42545;50.054;8.306;2023-05-24T00:58:33;100485.00;;;9.20;83.12
56671;BME280;42545;50.054;8.306;2023-05-24T01:01:02;100488.47;;;9.19;83.04
56671;BME280;42545;50.054;8.306;2023-05-24T01:03:29;100488.41;;;9.18;82.73
56671;BME280;42545;50.054;8.306;2023-05-24T01:05:57;100496.34;;;9.19;82.77
56671;BME280;42545;50.054;8.306;2023-05-24T01:08:41;100492.78;;;9.17;82.24
56671;BME280;42545;50.054;8.306;2023-05-24T01:11:15;100486.69;;;9.18;82.41
56671;BME280;42545;50.054;8.306;2023-05-24T01:13:49;100502.44;;;9.17;81.93
56671;BME280;42545;50.054;8.306;2023-05-24T01:16:21;100501.56;;;9.16;82.12
56671;BME280;42545;50.054;8.306;2023-05-24T01:18:54;100496.28;;;9.16;82.64
56671;BME280;42545;50.054;8.306;2023-05-24T01:21:37;100497.06;;;9.14;82.26
56671;BME280;42545;50.054;8.306;2023-05-24T01:24:13;100491.72;;;9.11;82.56
56671;BME280;42545;50.054;8.306;2023-05-24T01:26:55;100490.00;;;9.11;82.85
56671;BME280;42545;50.054;8.306;2023-05-24T01:29:25;100483.81;;;9.11;83.29
56671;BME280;42545;50.054;8.306;2023-05-24T01:31:52;100479.41;;;9.10;83.50
56671;BME280;42545;50.054;8.306;2023-05-24T01:34:19;100477.53;;;9.06;83.69
56671;BME280;42545;50.054;8.306;2023-05-24T01:36:45;100480.13;;;9.04;83.87
56671;BME280;42545;50.054;8.306;2023-05-24T01:39:12;100475.63;;;9.00;84.10
56671;BME280;42545;50.054;8.306;2023-05-24T01:41:42;100485.19;;;8.98;84.20
56671;BME280;42545;50.054;8.306;2023-05-24T01:44:18;100478.94;;;8.94;84.34
56671;BME280;42545;50.054;8.306;2023-05-24T01:46:53;100482.34;;;8.90;84.56
56671;BME280;42545;50.054;8.306;2023-05-24T01:49:26;100476.97;;;8.85;84.48
56671;BME280;42545;50.054;8.306;2023-05-24T01:51:58;100478.66;;;8.83;84.90
56671;BME280;42545;50.054;8.306;2023-05-24T01:54:27;100476.69;;;8.78;83.85
56671;BME280;42545;50.054;8.306;2023-05-24T01:56:57;100475.72;;;8.74;84.57
56671;BME280;42545;50.054;8.306;2023-05-24T01:59:28;100475.47;;;8.66;83.40
56671;BME280;42545;50.054;8.306;2023-05-24T02:01:56;100477.06;;;8.61;83.51
56671;BME280;42545;50.054;8.306;2023-05-24T02:04:23;100476.06;;;8.56;84.24
56671;BME280;42545;50.054;8.306;2023-05-24T02:06:50;100475.91;;;8.52;83.89
56671;BME280;42545;50.054;8.306;2023-05-24T02:09:16;100481.03;;;8.47;83.73
56671;BME280;42545;50.054;8.306;2023-05-24T02:11:43;100481.75;;;8.43;83.96
56671;BME280;42545;50.054;8.306;2023-05-24T02:14:10;100478.09;;;8.39;84.19
56671;BME280;42545;50.054;8.306;2023-05-24T02:16:38;100477.16;;;8.37;84.36
56671;BME280;42545;50.054;8.306;2023-05-24T02:19:06;100481.66;;;8.40;84.39
56671;BME280;42545;50.054;8.306;2023-05-24T02:21:33;100480.03;;;8.43;84.72
56671;BME280;42545;50.054;8.306;2023-05-24T02:24:00;100481.88;;;8.46;84.90
56671;BME280;42545;50.054;8.306;2023-05-24T02:26:27;100488.00;;;8.46;84.79
56671;BME280;42545;50.054;8.306;2023-05-24T02:28:54;100485.38;;;8.46;85.21
56671;BME280;42545;50.054;8.306;2023-05-24T02:31:21;100493.22;;;8.45;84.47
56671;BME280;42545;50.054;8.306;2023-05-24T02:33:49;100495.78;;;8.42;84.73
56671;BME280;42545;50.054;8.306;2023-05-24T02:36:15;100492.13;;;8.38;84.61
56671;BME280;42545;50.054;8.306;2023-05-24T02:38:42;100488.59;;;8.38;84.64
56671;BME280;42545;50.054;8.306;2023-05-24T02:41:08;100490.25;;;8.36;85.18
56671;BME280;42545;50.054;8.306;2023-05-24T02:43:36;100484.06;;;8.34;85.41
56671;BME280;42545;50.054;8.306;2023-05-24T02:46:02;100487.59;;;8.34;85.58
56671;BME280;42545;50.054;8.306;2023-05-24T02:48:29;100479.72;;;8.34;85.88
56671;BME280;42545;50.054;8.306;2023-05-24T02:50:57;100480.59;;;8.35;85.80
56671;BME280;42545;50.054;8.306;2023-05-24T02:53:27;100491.88;;;8.31;85.60
56671;BME280;42545;50.054;8.306;2023-05-24T02:55:54;100491.75;;;8.27;85.60
56671;BME280;42545;50.054;8.306;2023-05-24T02:58:20;100485.47;;;8.22;85.10
56671;BME280;42545;50.054;8.306;2023-05-24T03:00:47;100481.84;;;8.19;85.66
56671;BME280;42545;50.054;8.306;2023-05-24T03:03:13;100493.16;;;8.16;84.93
56671;BME280;42545;50.054;8.306;2023-05-24T03:05:40;100490.34;;;8.12;85.01
56671;BME280;42545;50.054;8.306;2023-05-24T03:08:08;100486.69;;;8.06;85.34
56671;BME280;42545;50.054;8.306;2023-05-24T03:10:35;100492.75;;;8.04;85.05
56671;BME280;42545;50.054;8.306;2023-05-24T03:13:01;100481.22;;;8.00;85.31
56671;BME280;42545;50.054;8.306;2023-05-24T03:15:29;100483.03;;;8.01;85.88
56671;BME280;42545;50.054;8.306;2023-05-24T03:17:55;100483.91;;;8.02;86.00
56671;BME280;42545;50.054;8.306;2023-05-24T03:20:22;100475.97;;;8.00;85.39
56671;BME280;42545;50.054;8.306;2023-05-24T03:22:48;100482.91;;;7.98;85.33
56671;BME280;42545;50.054;8.306;2023-05-24T03:25:17;100478.53;;;7.99;85.89
56671;BME280;42545;50.054;8.306;2023-05-24T03:27:43;100476.78;;;7.98;86.02
56671;BME280;42545;50.054;8.306;2023-05-24T03:30:11;100479.41;;;7.98;86.32
56671;BME280;42545;50.054;8.306;2023-05-24T03:32:38;100477.50;;;7.94;85.46
56671;BME280;42545;50.054;8.306;2023-05-24T03:35:05;100477.41;;;7.91;85.59
56671;BME280;42545;50.054;8.306;2023-05-24T03:37:31;100486.88;;;7.85;85.32
56671;BME280;42545;50.054;8.306;2023-05-24T03:39:58;100487.63;;;7.83;85.64
56671;BME280;42545;50.054;8.306;2023-05-24T03:42:26;100486.69;;;7.81;85.61
56671;BME280;42545;50.054;8.306;2023-05-24T03:44:52;100488.38;;;7.79;85.38
56671;BME280;42545;50.054;8.306;2023-05-24T03:47:19;100490.94;;;7.77;85.71
56671;BME280;42545;50.054;8.306;2023-05-24T03:49:46;100492.63;;;7.75;85.95
56671;BME280;42545;50.054;8.306;2023-05-24T03:52:13;100496.13;;;7.74;85.28
56671;BME280;42545;50.054;8.306;2023-05-24T03:54:40;100491.69;;;7.73;85.50
56671;BME280;42545;50.054;8.306;2023-05-24T03:57:07;100498.69;;;7.73;85.66
56671;BME280;42545;50.054;8.306;2023-05-24T03:59:35;100503.88;;;7.71;85.92
56671;BME280;42545;50.054;8.306;2023-05-24T04:02:02;100503.88;;;7.71;85.97
56671;BME280;42545;50.054;8.306;2023-05-24T04:04:28;100504.69;;;7.70;86.37
56671;BME280;42545;50.054;8.306;2023-05-24T04:06:55;100502.94;;;7.69;86.30
56671;BME280;42545;50.054;8.306;2023-05-24T04:09:22;100494.19;;;7.70;86.46
56671;BME280;42545;50.054;8.306;2023-05-24T04:11:49;100485.38;;;7.68;86.33
56671;BME280;42545;50.054;8.306;2023-05-24T04:14:16;100489.75;;;7.67;86.40
56671;BME280;42545;50.054;8.306;2023-05-24T04:16:44;100489.75;;;7.67;86.95
56671;BME280;42545;50.054;8.306;2023-05-24T04:19:11;100501.13;;;7.68;87.41
56671;BME280;42545;50.054;8.306;2023-05-24T04:21:37;100501.94;;;7.65;86.60
56671;BME280;42545;50.054;8.306;2023-05-24T04:24:04;100493.94;;;7.62;86.83
56671;BME280;42545;50.054;8.306;2023-05-24T04:26:31;100500.81;;;7.59;86.62
56671;BME280;42545;50.054;8.306;2023-05-24T04:28:58;100507.75;;;7.57;86.95
56671;BME280;42545;50.054;8.306;2023-05-24T04:31:25;100509.47;;;7.56;86.86
56671;BME280;42545;50.054;8.306;2023-05-24T04:33:55;100519.13;;;7.57;87.47
56671;BME280;42545;50.054;8.306;2023-05-24T04:36:23;100521.81;;;7.59;87.39
56671;BME280;42545;50.054;8.306;2023-05-24T04:38:50;100508.59;;;7.56;86.95
56671;BME280;42545;50.054;8.306;2023-05-24T04:41:17;100526.06;;;7.55;86.91
56671;BME280;42545;50.054;8.306;2023-05-24T04:43:46;100519.88;;;7.53;87.25
56671;BME280;42545;50.054;8.306;2023-05-24T04:46:13;100525.00;;;7.50;87.42
56671;BME280;42545;50.054;8.306;2023-05-24T04:48:40;100526.69;;;7.48;87.60
56671;BME280;42545;50.054;8.306;2023-05-24T04:51:09;100532.13;;;7.53;87.93
56671;BME280;42545;50.054;8.306;2023-05-24T04:53:36;100526.06;;;7.55;88.00
56671;BME280;42545;50.054;8.306;2023-05-24T04:56:02;100528.75;;;7.57;87.75
56671;BME280;42545;50.054;8.306;2023-05-24T04:58:29;100528.06;;;7.62;87.78
56671;BME280;42545;50.054;8.306;2023-05-24T05:00:56;100529.13;;;7.67;87.58
56671;BME280;42545;50.054;8.306;2023-05-24T05:03:22;100538.16;;;7.76;87.06
56671;BME280;42545;50.054;8.306;2023-05-24T05:05:49;100533.16;;;7.82;86.96
56671;BME280;42545;50.054;8.306;2023-05-24T05:08:17;100524.59;;;7.87;86.22
56671;BME280;42545;50.054;8.306;2023-05-24T05:10:44;100526.53;;;7.93;85.72
56671;BME280;42545;50.054;8.306;2023-05-24T05:13:11;100517.03;;;7.97;85.97
56671;BME280;42545;50.054;8.306;2023-05-24T05:15:37;100519.03;;;8.04;85.49
56671;BME280;42545;50.054;8.306;2023-05-24T05:18:04;100515.69;;;8.09;84.73
56671;BME280;42545;50.054;8.306;2023-05-24T05:20:31;100516.63;;;8.12;84.65
56671;BME280;42545;50.054;8.306;2023-05-24T05:22:57;100526.41;;;8.16;84.60
56671;BME280;42545;50.054;8.306;2023-05-24T05:25:26;100520.50;;;8.23;83.57
56671;BME280;42545;50.054;8.306;2023-05-24T05:27:52;100524.09;;;8.25;83.40
56671;BME280;42545;50.054;8.306;2023-05-24T05:30:19;100539.19;;;8.31;83.38
56671;BME280;42545;50.054;8.306;2023-05-24T05:32:46;100537.56;;;8.34;82.95
56671;BME280;42545;50.054;8.306;2023-05-24T05:35:12;100538.59;;;8.39;83.35
56671;BME280;42545;50.054;8.306;2023-05-24T05:37:39;100551.94;;;8.44;82.31
56671;BME280;42545;50.054;8.306;2023-05-24T05:40:06;100557.31;;;8.49;82.33
56671;BME280;42545;50.054;8.306;2023-05-24T05:42:34;100555.69;;;8.52;81.23
56671;BME280;42545;50.054;8.306;2023-05-24T05:45:01;100563.75;;;8.57;80.80
56671;BME280;42545;50.054;8.306;2023-05-24T05:47:28;100562.06;;;8.59;80.47
56671;BME280;42545;50.054;8.306;2023-05-24T05:49:55;100555.97;;;8.60;80.27
56671;BME280;42545;50.054;8.306;2023-05-24T05:52:22;100556.84;;;8.60;79.98
56671;BME280;42545;50.054;8.306;2023-05-24T05:54:49;100555.28;;;8.65;80.67
56671;BME280;42545;50.054;8.306;2023-05-24T05:57:15;100541.91;;;8.59;79.94
56671;BME280;42545;50.054;8.306;2023-05-24T05:59:49;100555.50;;;8.73;79.48
56671;BME280;42545;50.054;8.306;2023-05-24T06:02:16;100558.25;;;8.78;79.04
56671;BME280;42545;50.054;8.306;2023-05-24T06:04:44;100567.91;;;8.77;77.77
56671;BME280;42545;50.054;8.306;2023-05-24T06:07:11;100559.13;;;8.77;77.59
56671;BME280;42545;50.054;8.306;2023-05-24T06:09:37;100563.53;;;8.78;78.01
56671;BME280;42545;50.054;8.306;2023-05-24T06:12:04;100567.25;;;8.84;77.87
56671;BME280;42545;50.054;8.306;2023-05-24T06:14:31;100568.25;;;8.88;77.49
56671;BME280;42545;50.054;8.306;2023-05-24T06:17:00;100575.53;;;8.97;77.83
56671;BME280;42545;50.054;8.306;2023-05-24T06:19:26;100574.94;;;9.06;77.54
56671;BME280;42545;50.054;8.306;2023-05-24T06:21:53;100583.84;;;9.09;76.69
56671;BME280;42545;50.054;8.306;2023-05-24T06:24:20;100582.31;;;9.17;75.91
56671;BME280;42545;50.054;8.306;2023-05-24T06:26:47;100579.94;;;9.27;76.14
56671;BME280;42545;50.054;8.306;2023-05-24T06:29:13;100586.34;;;9.35;75.81
56671;BME280;42545;50.054;8.306;2023-05-24T06:31:40;100588.28;;;9.40;73.61
56671;BME280;42545;50.054;8.306;2023-05-24T06:34:09;100576.94;;;9.43;74.25
56671;BME280;42545;50.054;8.306;2023-05-24T06:36:36;100595.63;;;9.52;73.67
56671;BME280;42545;50.054;8.306;2023-05-24T06:39:05;100587.00;;;9.58;73.05
56671;BME280;42545;50.054;8.306;2023-05-24T06:41:32;100587.25;;;9.66;72.43
56671;BME280;42545;50.054;8.306;2023-05-24T06:43:58;100586.47;;;9.70;71.94
56671;BME280;42545;50.054;8.306;2023-05-24T06:46:25;100588.44;;;9.77;71.71
56671;BME280;42545;50.054;8.306;2023-05-24T06:48:52;100582.50;;;9.84;71.86
56671;BME280;42545;50.054;8.306;2023-05-24T06:51:20;100589.72;;;9.91;70.46
56671;BME280;42545;50.054;8.306;2023-05-24T06:53:46;100592.63;;;10.00;71.16
56671;BME280;42545;50.054;8.306;2023-05-24T06:56:13;100586.66;;;10.09;70.65
56671;BME280;42545;50.054;8.306;2023-05-24T06:58:39;100575.38;;;10.13;69.59
56671;BME280;42545;50.054;8.306;2023-05-24T07:01:06;100571.13;;;10.18;69.86
56671;BME280;42545;50.054;8.306;2023-05-24T07:03:33;100578.41;;;10.29;70.32
56671;BME280;42545;50.054;8.306;2023-05-24T07:06:00;100574.22;;;10.35;68.66
56671;BME280;42545;50.054;8.306;2023-05-24T07:08:29;100576.22;;;10.44;69.16
56671;BME280;42545;50.054;8.306;2023-05-24T07:10:55;100571.16;;;10.53;68.09
56671;BME280;42545;50.054;8.306;2023-05-24T07:13:22;100567.72;;;10.57;67.47
56671;BME280;42545;50.054;8.306;2023-05-24T07:15:49;100571.34;;;10.61;67.11
56671;BME280;42545;50.054;8.306;2023-05-24T07:18:15;100570.59;;;10.67;67.63
56671;BME280;42545;50.054;8.306;2023-05-24T07:20:42;100566.28;;;10.70;66.35
56671;BME280;42545;50.054;8.306;2023-05-24T07:23:09;100568.25;;;10.79;66.86
56671;BME280;42545;50.054;8.306;2023-05-24T07:25:37;100571.91;;;10.84;65.28
56671;BME280;42545;50.054;8.306;2023-05-24T07:28:04;100563.09;;;10.85;65.67
56671;BME280;42545;50.054;8.306;2023-05-24T07:30:31;100567.56;;;10.88;65.58
56671;BME280;42545;50.054;8.306;2023-05-24T07:32:58;100567.69;;;10.92;66.18
56671;BME280;42545;50.054;8.306;2023-05-24T07:35:24;100574.06;;;11.02;65.89
56671;BME280;42545;50.054;8.306;2023-05-24T07:37:52;100576.97;;;11.14;63.65
56671;BME280;42545;50.054;8.306;2023-05-24T07:40:19;100588.75;;;11.29;63.70
56671;BME280;42545;50.054;8.306;2023-05-24T07:42:48;100596.03;;;11.39;63.71
56671;BME280;42545;50.054;8.306;2023-05-24T07:45:15;100589.03;;;11.41;61.44
56671;BME280;42545;50.054;8.306;2023-05-24T07:47:41;100598.91;;;11.51;61.79
56671;BME280;42545;50.054;8.306;2023-05-24T07:50:09;100596.50;;;11.62;61.20
56671;BME280;42545;50.054;8.306;2023-05-24T07:52:35;100592.31;;;11.73;59.94
56671;BME280;42545;50.054;8.306;2023-05-24T07:55:03;100589.06;;;11.87;59.62
56671;BME280;42545;50.054;8.306;2023-05-24T07:57:30;100591.09;;;11.99;59.78
56671;BME280;42545;50.054;8.306;2023-05-24T07:59:59;100590.06;;;11.90;57.43
56671;BME280;42545;50.054;8.306;2023-05-24T08:02:31;100592.97;;;12.06;58.95
56671;BME280;42545;50.054;8.306;2023-05-24T08:04:57;100605.56;;;12.19;59.00
56671;BME280;42545;50.054;8.306;2023-05-24T08:07:24;100598.84;;;12.37;58.77
56671;BME280;42545;50.054;8.306;2023-05-24T08:09:51;100597.25;;;12.48;56.81
56671;BME280;42545;50.054;8.306;2023-05-24T08:12:17;100600.06;;;12.57;56.88
56671;BME280;42545;50.054;8.306;2023-05-24T08:14:44;100575.41;;;12.60;55.75
56671;BME280;42545;50.054;8.306;2023-05-24T08:17:12;100583.25;;;12.54;56.40
56671;BME280;42545;50.054;8.306;2023-05-24T08:19:39;100583.16;;;12.47;56.40
56671;BME280;42545;50.054;8.306;2023-05-24T08:22:05;100590.03;;;12.36;56.27
56671;BME280;42545;50.054;8.306;2023-05-24T08:24:32;100587.16;;;12.24;56.57
56671;BME280;42545;50.054;8.306;2023-05-24T08:26:59;100595.88;;;12.18;58.24
56671;BME280;42545;50.054;8.306;2023-05-24T08:29:26;100592.16;;;12.10;57.54
56671;BME280;42545;50.054;8.306;2023-05-24T08:31:53;100596.41;;;12.00;57.72
56671;BME280;42545;50.054;8.306;2023-05-24T08:34:21;100594.50;;;11.93;58.64
56671;BME280;42545;50.054;8.306;2023-05-24T08:36:48;100598.72;;;11.86;58.57
56671;BME280;42545;50.054;8.306;2023-05-24T08:39:14;100603.84;;;11.77;58.79
56671;BME280;42545;50.054;8.306;2023-05-24T08:41:42;100607.22;;;11.70;59.73
56671;BME280;42545;50.054;8.306;2023-05-24T08:44:09;100609.66;;;11.59;59.76
56671;BME280;42545;50.054;8.306;2023-05-24T08:46:36;100609.44;;;11.48;60.74
56671;BME280;42545;50.054;8.306;2023-05-24T08:49:03;100604.00;;;11.42;60.59
56671;BME280;42545;50.054;8.306;2023-05-24T08:51:33;100605.63;;;11.37;61.51
56671;BME280;42545;50.054;8.306;2023-05-24T08:54:04;100601.13;;;11.31;61.49
56671;BME280;42545;50.054;8.306;2023-05-24T08:56:31;100608.16;;;11.31;62.35
56671;BME280;42545;50.054;8.306;2023-05-24T08:58:59;100610.91;;;11.35;62.97
56671;BME280;42545;50.054;8.306;2023-05-24T09:01:26;100597.78;;;11.40;63.09
56671;BME280;42545;50.054;8.306;2023-05-24T09:03:53;100605.00;;;11.47;63.22
56671;BME280;42545;50.054;8.306;2023-05-24T09:06:20;100591.16;;;11.59;62.93
56671;BME280;42545;50.054;8.306;2023-05-24T09:08:50;100596.53;;;11.64;61.43
56671;BME280;42545;50.054;8.306;2023-05-24T09:11:18;100594.91;;;11.70;61.45
56671;BME280;42545;50.054;8.306;2023-05-24T09:13:47;100595.09;;;11.80;62.07
56671;BME280;42545;50.054;8.306;2023-05-24T09:16:14;100598.03;;;11.93;61.47
56671;BME280;42545;50.054;8.306;2023-05-24T09:18:41;100602.75;;;12.10;60.28
56671;BME280;42545;50.054;8.306;2023-05-24T09:21:08;100590.63;;;12.23;58.70
56671;BME280;42545;50.054;8.306;2023-05-24T09:23:35;100593.53;;;12.37;58.95
56671;BME280;42545;50.054;8.306;2023-05-24T09:26:07;100591.16;;;12.52;58.42
56671;BME280;42545;50.054;8.306;2023-05-24T09:28:36;100596.72;;;12.67;56.44
56671;BME280;42545;50.054;8.306;2023-05-24T09:31:03;100593.41;;;12.81;56.05
56671;BME280;42545;50.054;8.306;2023-05-24T09:33:30;100598.81;;;12.87;55.51
56671;BME280;42545;50.054;8.306;2023-05-24T09:35:58;100596.25;;;12.93;55.92
56671;BME280;42545;50.054;8.306;2023-05-24T09:38:25;100593.69;;;12.99;56.52
56671;BME280;42545;50.054;8.306;2023-05-24T09:41:00;100589.19;;;12.94;56.78
56671;BME280;42545;50.054;8.306;2023-05-24T09:43:28;100590.22;;;13.03;56.61
56671;BME280;42545;50.054;8.306;2023-05-24T09:45:56;100591.22;;;13.12;57.35
56671;BME280;42545;50.054;8.306;2023-05-24T09:48:24;100587.72;;;13.16;54.89
56671;BME280;42545;50.054;8.306;2023-05-24T09:51:05;100580.66;;;13.13;54.92
56671;BME280;42545;50.054;8.306;2023-05-24T09:53:34;100577.91;;;13.08;55.39
56671;BME280;42545;50.054;8.306;2023-05-24T09:56:02;100576.22;;;13.14;54.82
56671;BME280;42545;50.054;8.306;2023-05-24T09:58:31;100561.25;;;13.16;54.25
56671;BME280;42545;50.054;8.306;2023-05-24T10:01:05;100563.09;;;13.23;53.54
56671;BME280;42545;50.054;8.306;2023-05-24T10:03:33;100563.19;;;13.27;54.00
56671;BME280;42545;50.054;8.306;2023-05-24T10:06:00;100556.22;;;13.33;53.38
56671;BME280;42545;50.054;8.306;2023-05-24T10:08:29;100552.72;;;13.35;52.66
56671;BME280;42545;50.054;8.306;2023-05-24T10:10:56;100563.22;;;13.29;52.69
56671;BME280;42545;50.054;8.306;2023-05-24T10:13:23;100564.16;;;13.34;52.98
56671;BME280;42545;50.054;8.306;2023-05-24T10:15:51;100568.72;;;13.44;53.10
56671;BME280;42545;50.054;8.306;2023-05-24T10:18:18;100568.00;;;13.56;53.59
56671;BME280;42545;50.054;8.306;2023-05-24T10:20:45;100567.25;;;13.68;52.88
56671;BME280;42545;50.054;8.306;2023-05-24T10:23:15;100569.25;;;13.86;51.91
56671;BME280;42545;50.054;8.306;2023-05-24T10:25:49;100569.38;;;13.98;51.61
56671;BME280;42545;50.054;8.306;2023-05-24T10:28:18;100569.47;;;14.11;51.02
56671;BME280;42545;50.054;8.306;2023-05-24T10:30:56;100569.50;;;14.12;49.43
56671;BME280;42545;50.054;8.306;2023-05-24T10:33:26;100574.84;;;14.15;51.80
56671;BME280;42545;50.054;8.306;2023-05-24T10:35:53;100566.13;;;14.29;51.66
56671;BME280;42545;50.054;8.306;2023-05-24T10:38:22;100559.13;;;14.40;50.19
56671;BME280;42545;50.054;8.306;2023-05-24T10:40:49;100555.69;;;14.46;49.18
56671;BME280;42545;50.054;8.306;2023-05-24T10:43:16;100556.56;;;14.48;49.61
56671;BME280;42545;50.054;8.306;2023-05-24T10:45:47;100557.56;;;14.57;49.96
56671;BME280;42545;50.054;8.306;2023-05-24T10:48:35;100546.16;;;14.71;49.46
56671;BME280;42545;50.054;8.306;2023-05-24T10:51:34;100547.97;;;14.78;50.17
56671;BME280;42545;50.054;8.306;2023-05-24T10:54:16;100536.47;;;14.82;48.66
56671;BME280;42545;50.054;8.306;2023-05-24T10:56:44;100534.69;;;14.75;47.65
56671;BME280;42545;50.054;8.306;2023-05-24T10:59:22;100532.81;;;14.61;47.51
56671;BME280;42545;50.054;8.306;2023-05-24T11:01:56;100536.25;;;14.54;48.20
56671;BME280;42545;50.054;8.306;2023-05-24T11:04:29;100539.75;;;14.50;48.05
56671;BME280;42545;50.054;8.306;2023-05-24T11:07:00;100538.81;;;14.43;47.35
56671;BME280;42545;50.054;8.306;2023-05-24T11:09:28;100530.78;;;14.36;47.94
56671;BME280;42545;50.054;8.306;2023-05-24T11:11:59;100529.06;;;14.41;48.55
56671;BME280;42545;50.054;8.306;2023-05-24T11:14:28;100531.78;;;14.49;48.69
56671;BME280;42545;50.054;8.306;2023-05-24T11:16:56;100529.25;;;14.61;48.72
56671;BME280;42545;50.054;8.306;2023-05-24T11:19:30;100529.28;;;14.67;48.23
56671;BME280;42545;50.054;8.306;2023-05-24T11:21:58;100523.19;;;14.77;48.11
56671;BME280;42545;50.054;8.306;2023-05-24T11:24:26;100514.38;;;14.85;47.88
56671;BME280;42545;50.054;8.306;2023-05-24T11:26:53;100524.19;;;14.99;47.47
56671;BME280;42545;50.054;8.306;2023-05-24T11:29:21;100524.25;;;15.10;48.38
56671;BME280;42545;50.054;8.306;2023-05-24T11:31:48;100525.16;;;15.11;47.78
56671;BME280;42545;50.054;8.306;2023-05-24T11:34:15;100534.03;;;15.11;47.24
56671;BME280;42545;50.054;8.306;2023-05-24T11:36:44;100526.91;;;15.04;48.38
56671;BME280;42545;50.054;8.306;2023-05-24T11:39:12;100520.63;;;14.96;47.84
56671;BME280;42545;50.054;8.306;2023-05-24T11:41:39;100517.94;;;14.88;47.87
56671;BME280;42545;50.054;8.306;2023-05-24T11:44:08;100513.53;;;14.92;47.87
56671;BME280;42545;50.054;8.306;2023-05-24T11:46:35;100510.06;;;15.05;47.51
56671;BME280;42545;50.054;8.306;2023-05-24T11:49:03;100509.19;;;15.09;47.56
56671;BME280;42545;50.054;8.306;2023-05-24T11:51:31;100513.66;;;15.13;47.67
56671;BME280;42545;50.054;8.306;2023-05-24T11:54:00;100512.78;;;15.22;47.95
56671;BME280;42545;50.054;8.306;2023-05-24T11:56:28;100509.31;;;15.40;48.27
56671;BME280;42545;50.054;8.306;2023-05-24T11:59:05;100511.13;;;15.47;46.51
56671;BME280;42545;50.054;8.306;2023-05-24T12:01:34;100511.13;;;15.47;46.71
56671;BME280;42545;50.054;8.306;2023-05-24T12:04:04;100502.31;;;15.57;45.61
56671;BME280;42545;50.054;8.306;2023-05-24T12:06:35;100506.75;;;15.55;45.35
56671;BME280;42545;50.054;8.306;2023-05-24T12:09:04;100511.16;;;15.55;45.85
56671;BME280;42545;50.054;8.306;2023-05-24T12:11:33;100494.34;;;15.61;45.62
56671;BME280;42545;50.054;8.306;2023-05-24T12:13:59;100500.59;;;15.76;46.63
56671;BME280;42545;50.054;8.306;2023-05-24T12:16:26;100497.97;;;15.97;46.34
56671;BME280;42545;50.054;8.306;2023-05-24T12:18:56;100500.66;;;16.06;45.67
56671;BME280;42545;50.054;8.306;2023-05-24T12:21:23;100499.78;;;16.13;46.00
56671;BME280;42545;50.054;8.306;2023-05-24T12:23:50;100502.44;;;16.02;44.67
56671;BME280;42545;50.054;8.306;2023-05-24T12:26:18;100501.53;;;15.94;45.53
56671;BME280;42545;50.054;8.306;2023-05-24T12:28:47;100497.97;;;15.89;45.80
56671;BME280;42545;50.054;8.306;2023-05-24T12:31:18;100508.63;;;15.81;45.96
56671;BME280;42545;50.054;8.306;2023-05-24T12:33:46;100500.56;;;15.70;45.36
56671;BME280;42545;50.054;8.306;2023-05-24T12:36:12;100497.88;;;15.61;46.20
56671;BME280;42545;50.054;8.306;2023-05-24T12:38:39;100492.53;;;15.50;46.64
56671;BME280;42545;50.054;8.306;2023-05-24T12:41:06;100503.16;;;15.44;46.78
56671;BME280;42545;50.054;8.306;2023-05-24T12:43:35;100495.16;;;15.46;46.77
56671;BME280;42545;50.054;8.306;2023-05-24T12:46:03;100503.16;;;15.50;46.86
56671;BME280;42545;50.054;8.306;2023-05-24T12:48:29;100492.53;;;15.56;47.24
56671;BME280;42545;50.054;8.306;2023-05-24T12:50:56;100486.34;;;15.62;47.04
56671;BME280;42545;50.054;8.306;2023-05-24T12:53:23;100496.13;;;15.66;47.34
56671;BME280;42545;50.054;8.306;2023-05-24T12:55:50;100484.59;;;15.61;45.21
56671;BME280;42545;50.054;8.306;2023-05-24T12:58:20;100490.78;;;15.60;45.99
56671;BME280;42545;50.054;8.306;2023-05-24T13:00:48;100484.59;;;15.61;46.58